Time;durP1;ratioP1;P1;durP2;ratioP2;P2;SDS_P1;SDS_P2;PMS_P1;PMS_P2;Temp;Humidity;BMP_temperature;BMP_pressure;BME280_temperature;BME280_humidity;BME280_pressure;Samples;Min_cycle;Max_cycle;Signal;HPM_P1;HPM_P2
2023/01/18 00:01:10;;;;;;;34.17;8.15;;;;;;;-1.98;100.00;90943.13;5051362;28;20055;-60
2023/01/18 00:03:38;;;;;;;16.55;5.22;;;;;;;-1.78;100.00;90939.72;5033739;28;22048;-60
2023/01/18 00:06:08;;;;;;;13.82;5.18;;;;;;;-1.66;100.00;90926.44;5051569;28;20048;-60
2023/01/18 00:08:37;;;;;;;13.37;4.90;;;;;;;-1.58;100.00;90929.75;5051725;28;20098;-60
2023/01/18 00:11:06;;;;;;;9.02;3.42;;;;;;;-1.67;100.00;90938.38;5052155;28;20090;-60
2023/01/18 00:13:33;;;;;;;35.00;6.95;;;;;;;-1.68;100.00;90934.16;5050746;28;20102;-60
2023/01/18 00:16:04;;;;;;;6.47;2.85;;;;;;;-1.59;100.00;90930.16;5052161;28;20047;-60
2023/01/18 00:18:31;;;;;;;5.03;1.92;;;;;;;-1.47;100.00;90924.94;5051488;28;20045;-59
2023/01/18 00:21:02;;;;;;;4.93;2.07;;;;;;;-1.52;100.00;90927.34;5051108;28;20053;-60
2023/01/18 00:23:29;;;;;;;8.60;2.20;;;;;;;-1.63;100.00;90925.63;5051062;28;20049;-60
2023/01/18 00:26:04;;;;;;;7.55;2.78;;;;;;;-1.47;100.00;90910.72;5033798;28;20405;-60
2023/01/18 00:28:32;;;;;;;5.68;1.90;;;;;;;-1.41;100.00;90928.66;5051298;28;20041;-60
2023/01/18 00:30:59;;;;;;;2.65;1.20;;;;;;;-1.40;100.00;90934.81;5051645;28;20075;-60
2023/01/18 00:33:26;;;;;;;4.03;1.50;;;;;;;-1.48;100.00;90926.09;5051003;28;20398;-60
2023/01/18 00:36:00;;;;;;;5.03;1.77;;;;;;;-1.60;100.00;90910.59;5051047;28;20209;-60
2023/01/18 00:38:28;;;;;;;7.78;2.28;;;;;;;-1.56;100.00;90918.59;5051269;28;20063;-60
2023/01/18 00:40:56;;;;;;;13.70;2.83;;;;;;;-1.52;100.00;90927.34;5050856;28;20049;-60
2023/01/18 00:43:37;;;;;;;11.57;2.65;;;;;;;-1.41;100.00;90925.19;5050947;28;20060;-60
2023/01/18 00:46:06;;;;;;;14.43;2.73;;;;;;;-1.38;100.00;90926.31;5051264;28;20063;-60
2023/01/18 00:48:34;;;;;;;2.83;1.05;;;;;;;-1.35;100.00;90915.47;5051108;28;20503;-60
2023/01/18 00:51:01;;;;;;;3.40;1.50;;;;;;;-1.39;100.00;90917.47;5051278;28;20045;-60
2023/01/18 00:53:28;;;;;;;30.77;4.15;;;;;;;-1.45;100.00;90927.19;5050996;28;20053;-60
2023/01/18 00:55:55;;;;;;;15.50;4.15;;;;;;;-1.49;100.00;90927.28;5051274;28;20564;-60
2023/01/18 00:58:21;;;;;;;2.33;0.90;;;;;;;-1.52;100.00;90930.03;5050868;28;20150;-60
2023/01/18 01:00:51;;;;;;;21.67;4.50;;;;;;;-1.44;100.00;90945.63;5051112;28;20424;-60
2023/01/18 01:03:19;;;;;;;17.30;3.08;;;;;;;-1.43;100.00;90946.38;5050833;28;20059;-60
2023/01/18 01:08:32;;;;;;;6.50;1.73;;;;;;;-1.33;100.00;90956.16;5050704;28;20053;-60
2023/01/18 01:11:17;;;;;;;2.27;1.00;;;;;;;-1.22;100.00;90961.34;5051161;28;20040;-60
2023/01/18 01:27:30;;;;;;;2.72;1.00;;;;;;;-1.25;100.00;90957.56;5049972;28;20132;-60
2023/01/18 01:29:56;;;;;;;2.15;0.95;;;;;;;-1.29;100.00;90962.25;5050349;28;20399;-61
2023/01/18 01:32:23;;;;;;;2.30;0.98;;;;;;;-1.34;100.00;90965.44;5032213;28;20037;-60
2023/01/18 01:34:50;;;;;;;2.42;1.00;;;;;;;-1.42;100.00;90959.41;5050310;28;20041;-60
2023/01/18 01:37:18;;;;;;;2.43;1.03;;;;;;;-1.53;100.00;90955.41;5050011;28;20075;-60
2023/01/18 01:39:44;;;;;;;2.40;1.00;;;;;;;-1.62;100.00;90954.00;5050796;28;20043;-60
2023/01/18 01:42:11;;;;;;;2.95;1.13;;;;;;;-1.66;100.00;90961.38;5050544;28;20409;-61
2023/01/18 01:44:42;;;;;;;3.58;1.38;;;;;;;-1.80;100.00;90972.38;5049871;28;20063;-60
2023/01/18 01:47:14;;;;;;;6.60;3.00;;;;;;;-1.79;100.00;90967.75;5050376;28;20418;-61
2023/01/18 01:49:47;;;;;;;60.50;20.80;;;;;;;-1.76;100.00;90969.63;5032357;28;20037;-61
2023/01/18 01:52:22;;;;;;;6.82;2.90;;;;;;;-1.82;100.00;90974.72;5050301;28;20045;-61
2023/01/18 01:55:06;;;;;;;6.35;2.10;;;;;;;-1.91;100.00;90966.41;5049001;28;20798;-60
2023/01/18 01:57:49;;;;;;;3.97;1.90;;;;;;;-1.97;100.00;90965.38;5049793;28;20049;-61
2023/01/18 02:00:19;;;;;;;5.32;2.08;;;;;;;-2.06;100.00;90973.97;5050058;28;20049;-61
2023/01/18 02:02:51;;;;;;;5.87;2.00;;;;;;;-2.07;100.00;90975.16;5049145;28;20617;-61
2023/01/18 02:05:18;;;;;;;5.10;2.33;;;;;;;-2.14;100.00;90984.06;5049933;28;20418;-59
2023/01/18 02:07:46;;;;;;;4.28;2.10;;;;;;;-2.19;100.00;90984.53;5032120;28;20053;-61
2023/01/18 02:10:12;;;;;;;6.10;2.35;;;;;;;-2.09;100.00;90977.47;5050084;28;20049;-61
2023/01/18 02:12:43;;;;;;;6.20;2.13;;;;;;;-2.08;100.00;90984.38;5049304;28;20106;-61
2023/01/18 02:15:10;;;;;;;6.13;2.40;;;;;;;-1.94;100.00;90994.13;5031737;28;20041;-61
2023/01/18 02:17:49;;;;;;;4.95;2.53;;;;;;;-1.86;100.00;90982.09;5049069;28;20053;-60
2023/01/18 02:20:46;;;;;;;5.80;2.50;;;;;;;-1.81;100.00;90984.31;5032524;28;20041;-61
2023/01/18 02:23:32;;;;;;;6.00;2.58;;;;;;;-1.79;100.00;90981.97;5037125;28;20875;-61
2023/01/18 02:26:20;;;;;;;5.45;2.60;;;;;;;-1.73;100.00;90976.88;5054628;28;20860;-61
2023/01/18 02:29:05;;;;;;;6.37;2.23;;;;;;;-1.61;100.00;90987.03;5055925;28;20390;-61
2023/01/18 02:31:44;;;;;;;5.85;2.55;;;;;;;-1.65;100.00;90992.50;5056108;28;20114;-60
2023/01/18 02:34:26;;;;;;;5.82;2.28;;;;;;;-1.63;100.00;90995.53;5056395;28;20041;-61
2023/01/18 02:37:05;;;;;;;5.65;2.63;;;;;;;-1.64;100.00;91006.69;5046667;28;20625;-61
2023/01/18 02:39:54;;;;;;;6.38;2.22;;;;;;;-1.66;100.00;91000.97;5055958;28;20056;-61
2023/01/18 02:48:10;;;;;;;5.85;2.50;;;;;;;-1.78;100.00;91002.31;5055396;28;21777;-61
2023/01/18 02:50:37;;;;;;;5.55;2.33;;;;;;;-1.92;100.00;91002.53;5055957;28;20049;-61
2023/01/18 02:53:03;;;;;;;6.22;2.53;;;;;;;-1.94;100.00;90999.50;5056558;28;20049;-61
2023/01/18 02:55:48;;;;;;;5.17;2.30;;;;;;;-1.99;100.00;91010.69;5037959;28;20067;-60
2023/01/18 02:58:37;;;;;;;13.68;6.88;;;;;;;-2.14;100.00;91004.81;5044313;28;20052;-61
2023/01/18 03:01:06;;;;;;;5.53;2.72;;;;;;;-2.27;100.00;91005.38;5055314;28;20394;-61
2023/01/18 03:03:34;;;;;;;16.00;7.85;;;;;;;-2.44;100.00;91014.44;5055921;28;20049;-61
2023/01/18 03:06:05;;;;;;;11.13;4.28;;;;;;;-2.49;100.00;91015.66;5055975;28;20041;-60
2023/01/18 03:08:47;;;;;;;15.47;7.57;;;;;;;-2.52;100.00;91018.38;5055980;28;20106;-61
2023/01/18 03:11:22;;;;;;;7.25;2.80;;;;;;;-2.55;100.00;91019.97;5056442;28;20047;-60
2023/01/18 03:14:26;;;;;;;9.10;4.07;;;;;;;-2.58;100.00;91011.94;5055569;28;21789;-61
2023/01/18 03:16:57;;;;;;;6.45;2.90;;;;;;;-2.58;100.00;91009.25;5055210;28;20089;-60
2023/01/18 03:23:36;;;;;;;10.33;3.60;;;;;;;-2.81;100.00;91008.03;5055813;28;20052;-60
2023/01/18 03:25:17;;;;;;;7.25;3.00;;;;;;;-2.84;100.00;91016.88;5055916;28;20445;-60
2023/01/18 03:36:14;;;;;;;8.20;3.47;;;;;;;-3.03;100.00;91015.56;5053539;28;20045;-61
2023/01/18 03:38:43;;;;;;;7.55;3.30;;;;;;;-3.17;100.00;91018.44;5052243;28;20049;-60
2023/01/18 03:41:12;;;;;;;7.15;3.15;;;;;;;-3.25;100.00;91026.53;5022497;28;20040;-60
2023/01/18 03:43:41;;;;;;;6.85;2.92;;;;;;;-3.23;100.00;91024.22;5052385;28;20041;-60
2023/01/18 03:46:08;;;;;;;5.97;2.65;;;;;;;-3.21;100.00;91026.50;5052173;28;20037;-61
2023/01/18 03:48:35;;;;;;;5.67;2.50;;;;;;;-3.15;100.00;91030.28;5051987;28;20052;-60
2023/01/18 03:51:24;;;;;;;6.13;2.50;;;;;;;-3.18;100.00;91025.69;5052459;28;20060;-61
2023/01/18 03:54:03;;;;;;;7.63;2.70;;;;;;;-3.13;100.00;91025.25;5051462;28;20672;-60
2023/01/18 03:56:41;;;;;;;6.07;2.63;;;;;;;-3.06;100.00;91032.47;5052172;28;20049;-60
2023/01/18 03:59:08;;;;;;;6.43;3.15;;;;;;;-3.13;100.00;91035.25;5052423;28;20059;-60
2023/01/18 04:01:35;;;;;;;7.43;2.60;;;;;;;-3.24;100.00;91036.13;5051900;28;20048;-61
2023/01/18 04:04:02;;;;;;;6.60;2.60;;;;;;;-3.28;100.00;91035.41;5034626;28;20497;-60
2023/01/18 04:06:31;;;;;;;9.02;3.65;;;;;;;-3.42;100.00;91038.19;5051945;28;20067;-60
2023/01/18 04:08:58;;;;;;;8.77;3.70;;;;;;;-3.46;100.00;91048.19;5052147;28;20417;-60
2023/01/18 04:11:25;;;;;;;10.13;3.97;;;;;;;-3.62;100.00;91057.56;5050695;28;20522;-60
2023/01/18 04:13:51;;;;;;;11.03;4.13;;;;;;;-3.65;100.00;91058.34;5052183;28;20098;-60
2023/01/18 04:16:20;;;;;;;9.60;3.20;;;;;;;-3.63;100.00;91066.00;5051728;28;20052;-60
2023/01/18 04:18:47;;;;;;;9.73;4.07;;;;;;;-3.64;100.00;91067.16;5052232;28;20429;-61
2023/01/18 04:21:14;;;;;;;9.32;4.43;;;;;;;-3.70;100.00;91074.84;5052383;28;20102;-60
2023/01/18 04:23:40;;;;;;;19.55;7.00;;;;;;;-3.63;100.00;91080.13;5050387;28;20045;-60
2023/01/18 04:26:07;;;;;;;11.33;4.50;;;;;;;-3.61;100.00;91077.06;5051681;28;20391;-61
2023/01/18 04:28:34;;;;;;;8.80;3.30;;;;;;;-3.61;100.00;91085.88;5051697;28;20047;-61
2023/01/18 04:31:00;;;;;;;10.80;3.67;;;;;;;-3.60;100.00;91089.31;5051937;28;20044;-61
2023/01/18 04:33:27;;;;;;;8.40;3.92;;;;;;;-3.49;100.00;91086.53;5051079;28;20053;-60
2023/01/18 04:35:54;;;;;;;9.25;3.90;;;;;;;-3.41;100.00;91088.75;5051775;28;20037;-61
2023/01/18 04:38:21;;;;;;;8.97;3.00;;;;;;;-3.36;100.00;91095.63;5051292;28;20066;-60
2023/01/18 04:40:49;;;;;;;9.98;4.68;;;;;;;-3.32;100.00;91098.25;5051506;28;20037;-61
2023/01/18 04:43:16;;;;;;;13.98;4.35;;;;;;;-3.18;100.00;91098.09;5051296;28;20037;-60
2023/01/18 04:45:50;;;;;;;9.02;3.85;;;;;;;-3.15;100.00;91101.94;5051203;28;20516;-60
2023/01/18 04:48:17;;;;;;;133.32;47.58;;;;;;;-3.01;100.00;91110.59;5050963;28;20057;-60
2023/01/18 04:50:45;;;;;;;13.80;5.67;;;;;;;-2.98;100.00;91113.63;5050734;28;20263;-60
2023/01/18 04:53:12;;;;;;;7.82;3.45;;;;;;;-2.88;100.00;91118.13;5051198;28;20045;-61
2023/01/18 04:55:38;;;;;;;8.07;3.75;;;;;;;-2.79;100.00;91115.75;5050679;28;20056;-61
2023/01/18 04:58:05;;;;;;;8.50;3.45;;;;;;;-2.66;100.00;91124.78;5051149;28;20090;-61
2023/01/18 05:00:32;;;;;;;10.50;4.18;;;;;;;-2.70;100.00;91118.69;5050910;28;20045;-60
2023/01/18 05:02:58;;;;;;;14.47;4.93;;;;;;;-2.84;100.00;91124.22;5051099;28;20086;-60
2023/01/18 05:05:26;;;;;;;11.85;4.47;;;;;;;-2.75;100.00;91126.44;5050511;28;20048;-60
2023/01/18 05:07:52;;;;;;;19.83;5.07;;;;;;;-2.80;100.00;91133.00;5050844;28;20106;-60
2023/01/18 05:10:19;;;;;;;11.55;3.92;;;;;;;-2.82;100.00;91130.72;5050449;28;20105;-61
2023/01/18 05:12:46;;;;;;;17.00;4.22;;;;;;;-2.88;100.00;91140.38;5051063;28;20102;-61
2023/01/18 05:15:12;;;;;;;12.47;4.07;;;;;;;-2.73;100.00;91151.72;5051156;28;20052;-61
2023/01/18 05:17:39;;;;;;;12.18;4.40;;;;;;;-2.68;100.00;91147.81;5050275;28;20045;-60
2023/01/18 05:20:07;;;;;;;11.18;5.18;;;;;;;-2.45;100.00;91153.31;5033395;28;20397;-61
2023/01/18 05:22:36;;;;;;;12.95;5.60;;;;;;;-2.34;100.00;91163.94;5050368;28;20451;-61
2023/01/18 05:25:04;;;;;;;15.10;6.10;;;;;;;-2.25;100.00;91158.09;5050721;28;20045;-60
2023/01/18 05:27:32;;;;;;;19.40;4.33;;;;;;;-2.27;100.00;91165.78;5049737;28;20041;-60
2023/01/18 05:29:58;;;;;;;13.73;3.72;;;;;;;-2.24;100.00;91164.97;5050703;28;20051;-61
2023/01/18 05:32:25;;;;;;;6.75;2.20;;;;;;;-2.21;100.00;91164.94;5032558;28;20041;-60
2023/01/18 05:34:52;;;;;;;12.43;2.75;;;;;;;-2.11;100.00;91176.72;5050579;28;20040;-60
2023/01/18 05:37:18;;;;;;;6.45;2.25;;;;;;;-2.03;100.00;91178.13;5050153;28;20067;-59
2023/01/18 05:39:45;;;;;;;5.93;2.03;;;;;;;-1.92;100.00;91179.91;5050100;28;20106;-61
2023/01/18 05:42:11;;;;;;;7.47;2.38;;;;;;;-1.87;100.00;91184.81;5050588;28;20051;-61
2023/01/18 05:44:38;;;;;;;6.88;2.90;;;;;;;-1.82;100.00;91195.16;5049783;28;20049;-61
2023/01/18 05:47:05;;;;;;;8.35;2.55;;;;;;;-1.68;100.00;91191.50;5050422;28;20041;-61
2023/01/18 05:49:32;;;;;;;12.45;4.38;;;;;;;-1.82;100.00;91206.66;5049660;28;20052;-61
2023/01/18 05:51:58;;;;;;;8.30;2.37;;;;;;;-1.85;100.00;91207.47;5050151;28;20041;-61
2023/01/18 05:54:25;;;;;;;5.28;2.30;;;;;;;-1.79;100.00;91213.16;5049635;28;20075;-61
2023/01/18 05:56:51;;;;;;;5.72;2.53;;;;;;;-1.90;100.00;91215.22;5050214;28;20102;-61
2023/01/18 05:59:18;;;;;;;7.82;2.72;;;;;;;-1.70;100.00;91223.41;5049081;28;20047;-59
2023/01/18 06:01:45;;;;;;;6.43;2.42;;;;;;;-1.77;100.00;91226.19;5049946;28;20053;-61
2023/01/18 06:04:12;;;;;;;44.53;17.23;;;;;;;-1.67;100.00;91226.06;5050062;28;20420;-61
2023/01/18 06:06:38;;;;;;;13.80;4.75;;;;;;;-1.54;100.00;91239.72;5049694;28;20056;-61
2023/01/18 06:09:05;;;;;;;6.68;2.70;;;;;;;-1.65;100.00;91241.75;5049951;28;20041;-61
2023/01/18 06:11:32;;;;;;;7.22;1.95;;;;;;;-1.63;100.00;91247.50;5049576;28;20041;-60
2023/01/18 06:13:58;;;;;;;12.52;3.50;;;;;;;-1.69;100.00;91260.66;5050022;28;20045;-61
2023/01/18 06:16:25;;;;;;;3.43;1.43;;;;;;;-1.78;100.00;91265.75;5049010;28;20404;-60
2023/01/18 06:18:52;;;;;;;8.23;3.20;;;;;;;-1.65;100.00;91277.50;5049921;28;20568;-60
2023/01/18 06:21:19;;;;;;;8.35;3.40;;;;;;;-1.57;100.00;91282.78;5049119;28;20040;-60
2023/01/18 06:23:46;;;;;;;14.50;7.22;;;;;;;-1.64;100.00;91284.41;5049760;28;20036;-61
2023/01/18 06:26:12;;;;;;;9.68;3.92;;;;;;;-1.72;100.00;91276.81;5049720;28;20061;-61
2023/01/18 06:28:39;;;;;;;8.37;2.13;;;;;;;-1.66;100.00;91292.09;5031555;28;20436;-61
2023/01/18 06:31:07;;;;;;;11.48;2.88;;;;;;;-1.68;100.00;91304.44;5049428;28;20045;-61
2023/01/18 06:33:33;;;;;;;9.90;2.40;;;;;;;-1.60;100.00;91305.88;5049329;28;20188;-61
2023/01/18 06:36:01;;;;;;;7.25;2.50;;;;;;;-1.64;100.00;91313.97;5049501;28;20056;-61
2023/01/18 06:38:28;;;;;;;5.85;2.60;;;;;;;-1.64;100.00;91305.91;5049228;28;20078;-61
2023/01/18 06:40:55;;;;;;;5.10;2.10;;;;;;;-1.65;100.00;91317.84;5049465;28;20378;-61
2023/01/18 06:43:22;;;;;;;6.22;1.80;;;;;;;-1.63;100.00;91328.16;5048872;28;20053;-60
2023/01/18 06:45:56;;;;;;;3.63;1.70;;;;;;;-1.59;100.00;91328.13;5049520;28;20047;-61
2023/01/18 06:48:23;;;;;;;4.20;1.55;;;;;;;-1.73;100.00;91329.84;5049070;28;20049;-60
2023/01/18 06:50:51;;;;;;;5.80;1.95;;;;;;;-1.78;100.00;91335.66;5032039;28;20114;-61
2023/01/18 06:53:19;;;;;;;6.50;1.97;;;;;;;-1.85;100.00;91333.81;5032020;28;20056;-61
2023/01/18 06:56:00;;;;;;;6.07;1.95;;;;;;;-1.91;100.00;91350.75;5048777;28;20409;-61
2023/01/18 06:58:29;;;;;;;6.55;2.10;;;;;;;-1.84;100.00;91358.75;5049119;28;20442;-61
2023/01/18 07:00:58;;;;;;;8.98;1.73;;;;;;;-1.82;100.00;91359.13;5049160;28;20098;-61
2023/01/18 07:03:26;;;;;;;7.78;3.83;;;;;;;-1.75;100.00;91363.66;5049060;28;20057;-61
2023/01/18 07:05:54;;;;;;;8.10;2.53;;;;;;;-1.88;100.00;91366.84;5049499;28;20061;-61
2023/01/18 07:08:21;;;;;;;5.07;2.33;;;;;;;-1.99;100.00;91368.91;5049133;28;20055;-60
2023/01/18 07:10:48;;;;;;;4.82;2.30;;;;;;;-1.97;100.00;91374.66;5050120;28;20049;-61
2023/01/18 07:13:15;;;;;;;8.63;3.58;;;;;;;-1.97;100.00;91373.84;5053269;28;20405;-60
2023/01/18 07:15:42;;;;;;;7.07;3.08;;;;;;;-1.95;100.00;91376.91;5052734;28;20045;-61
2023/01/18 07:18:08;;;;;;;5.60;2.20;;;;;;;-1.88;100.00;91384.91;5053131;28;20378;-61
2023/01/18 07:20:35;;;;;;;7.93;2.25;;;;;;;-1.89;100.00;91386.84;5052747;28;20154;-60
2023/01/18 07:23:03;;;;;;;4.35;2.00;;;;;;;-1.91;100.00;91391.06;5053201;28;20041;-60
2023/01/18 07:25:30;;;;;;;3.03;1.30;;;;;;;-1.80;100.00;91394.44;5052398;28;20151;-60
2023/01/18 07:27:57;;;;;;;6.20;1.80;;;;;;;-1.94;100.00;91410.69;5052714;28;20347;-61
2023/01/18 07:30:23;;;;;;;3.00;1.50;;;;;;;-1.71;100.00;91416.25;5052723;28;20090;-61
2023/01/18 07:32:52;;;;;;;3.92;1.88;;;;;;;-1.72;100.00;91412.00;5052780;28;20037;-61
2023/01/18 07:35:23;;;;;;;4.90;2.10;;;;;;;-1.82;100.00;91420.94;5052316;28;20044;-58
2023/01/18 07:37:51;;;;;;;4.40;2.17;;;;;;;-1.83;100.00;91414.06;5052540;28;20098;-60
2023/01/18 07:40:20;;;;;;;5.25;2.10;;;;;;;-1.79;100.00;91428.22;5052213;28;20068;-59
2023/01/18 07:42:47;;;;;;;5.13;2.40;;;;;;;-1.85;100.00;91427.13;5046002;28;20481;-59
2023/01/18 07:45:14;;;;;;;9.68;2.90;;;;;;;-1.85;100.00;91430.59;5025881;28;20055;-59
2023/01/18 07:47:41;;;;;;;6.97;3.17;;;;;;;-1.82;100.00;91437.09;5050190;28;20067;-59
2023/01/18 07:50:09;;;;;;;6.00;2.60;;;;;;;-1.70;100.00;91443.88;5052519;28;20072;-59
2023/01/18 07:52:35;;;;;;;5.45;2.28;;;;;;;-1.83;100.00;91451.69;5051687;28;20049;-59
2023/01/18 07:55:02;;;;;;;9.53;2.20;;;;;;;-1.96;100.00;91453.34;5052189;28;20045;-60
2023/01/18 07:57:32;;;;;;;4.55;2.30;;;;;;;-1.86;100.00;91464.00;5034513;28;20057;-60
2023/01/18 07:59:58;;;;;;;9.75;4.18;;;;;;;-2.15;100.00;91466.16;5052380;28;20474;-60
2023/01/18 08:02:25;;;;;;;8.07;3.33;;;;;;;-2.09;100.00;91469.19;5051688;28;20045;-60
2023/01/18 08:04:52;;;;;;;9.27;3.80;;;;;;;-1.80;100.00;91475.09;5052299;28;20041;-60
2023/01/18 08:07:18;;;;;;;5.50;2.50;;;;;;;-1.54;100.00;91471.00;5051419;28;20069;-59
2023/01/18 08:09:45;;;;;;;4.40;2.00;;;;;;;-1.61;100.00;91477.22;5039207;28;20039;-60
2023/01/18 08:12:16;;;;;;;5.68;2.40;;;;;;;-1.51;100.00;91485.56;5034749;28;20478;-61
2023/01/18 08:14:46;;;;;;;3.83;2.10;;;;;;;-1.99;100.00;91492.53;5051609;28;20048;-61
2023/01/18 08:17:13;;;;;;;4.28;2.00;;;;;;;-1.50;100.00;91489.81;5052020;28;20049;-61
2023/01/18 08:19:40;;;;;;;4.53;2.20;;;;;;;-1.64;100.00;91496.06;5051409;28;20045;-60
2023/01/18 08:22:07;;;;;;;10.70;2.42;;;;;;;-1.44;100.00;91499.72;5051098;28;20062;-61
2023/01/18 08:24:34;;;;;;;5.15;2.92;;;;;;;-1.22;100.00;91504.91;5051211;28;20052;-61
2023/01/18 08:27:00;;;;;;;6.50;2.40;;;;;;;-1.26;100.00;91502.22;5051562;28;20036;-61
2023/01/18 08:29:27;;;;;;;5.07;2.58;;;;;;;-1.12;100.00;91511.34;5051419;28;20043;-61
2023/01/18 08:31:54;;;;;;;6.40;2.90;;;;;;;-1.14;100.00;91509.03;5051659;28;20407;-62
2023/01/18 08:34:20;;;;;;;6.00;2.47;;;;;;;-1.31;100.00;91518.03;5051352;28;20045;-61
2023/01/18 08:36:49;;;;;;;6.30;3.00;;;;;;;-0.95;100.00;91528.44;5051886;28;20047;-61
2023/01/18 08:39:16;;;;;;;4.97;2.50;;;;;;;-1.01;100.00;91528.13;5051770;28;20037;-61
2023/01/18 08:41:45;;;;;;;8.50;4.30;;;;;;;-0.97;100.00;91534.22;5051458;28;20363;-61
2023/01/18 08:44:12;;;;;;;5.23;2.40;;;;;;;-1.48;100.00;91542.03;5051802;28;20386;-61
2023/01/18 08:46:39;;;;;;;4.90;2.63;;;;;;;-1.18;100.00;91545.22;5037920;28;20098;-61
2023/01/18 08:49:06;;;;;;;6.15;3.20;;;;;;;-1.42;100.00;91553.88;5051630;28;20055;-61
2023/01/18 08:51:32;;;;;;;6.70;2.50;;;;;;;-1.10;100.00;91558.22;5050847;28;20045;-61
2023/01/18 08:53:59;;;;;;;5.22;2.53;;;;;;;-1.59;100.00;91565.56;5050996;28;20477;-61
2023/01/18 08:56:26;;;;;;;4.93;2.40;;;;;;;-1.63;100.00;91570.97;5050742;28;20044;-61
2023/01/18 08:58:53;;;;;;;4.57;2.15;;;;;;;-1.66;100.00;91579.81;5051105;28;20039;-61
2023/01/18 09:01:21;;;;;;;5.57;2.50;;;;;;;-1.20;100.00;91575.22;5050551;28;20524;-60
2023/01/18 09:03:52;;;;;;;7.07;3.45;;;;;;;-1.42;100.00;91574.66;5051504;28;20044;-61
2023/01/18 09:06:19;;;;;;;6.97;3.55;;;;;;;-1.53;100.00;91587.41;5038128;28;20049;-59
2023/01/18 09:08:47;;;;;;;7.33;2.90;;;;;;;-1.50;100.00;91590.06;5051088;28;20097;-61
2023/01/18 09:11:14;;;;;;;12.80;5.38;;;;;;;-1.38;100.00;91591.53;5050931;28;20070;-61
2023/01/18 09:13:41;;;;;;;6.07;3.20;;;;;;;-0.98;100.00;91591.94;5050636;28;20041;-61
2023/01/18 09:16:25;;;;;;;10.70;3.85;;;;;;;-0.87;100.00;91592.56;5050741;28;20391;-60
2023/01/18 09:18:54;;;;;;;7.95;3.70;;;;;;;-1.28;100.00;91590.66;5051031;28;20325;-61
2023/01/18 09:21:21;;;;;;;5.80;3.50;;;;;;;-1.86;100.00;91605.72;5050428;28;20098;-60
2023/01/18 09:23:48;;;;;;;10.18;4.07;;;;;;;-2.02;100.00;91614.25;5050843;28;20053;-61
2023/01/18 09:26:16;;;;;;;6.63;3.42;;;;;;;-1.66;100.00;91614.03;5050410;28;20059;-61
2023/01/18 09:28:43;;;;;;;6.13;3.13;;;;;;;-1.88;100.00;91611.47;5050497;28;20106;-60
2023/01/18 09:31:11;;;;;;;5.95;3.17;;;;;;;-1.79;100.00;91627.19;5050742;28;20485;-60
2023/01/18 09:33:38;;;;;;;7.90;3.30;;;;;;;-1.79;100.00;91632.56;5049723;28;20045;-60
2023/01/18 09:36:11;;;;;;;7.00;3.50;;;;;;;-1.65;100.00;91642.44;5050427;28;20045;-60
2023/01/18 09:38:39;;;;;;;7.10;4.00;;;;;;;-1.28;100.00;91641.78;5049772;28;20052;-61
2023/01/18 09:41:26;;;;;;;7.13;3.65;;;;;;;-1.56;100.00;91639.31;5050510;28;20063;-61
2023/01/18 09:43:58;;;;;;;7.32;3.85;;;;;;;-0.67;100.00;91637.78;5049576;28;20817;-61
2023/01/18 09:46:26;;;;;;;6.30;3.20;;;;;;;-0.29;100.00;91640.44;5049524;28;20789;-61
2023/01/18 09:49:01;;;;;;;6.72;3.28;;;;;;;-0.19;95.36;91644.19;5050360;28;20045;-61
2023/01/18 09:51:42;;;;;;;11.05;3.65;;;;;;;-0.07;91.60;91647.13;5036906;28;20072;-61
2023/01/18 09:54:37;;;;;;;12.73;3.30;;;;;;;-0.19;94.77;91647.66;5050421;28;20043;-61
2023/01/18 09:57:15;;;;;;;8.15;3.22;;;;;;;-0.08;97.10;91659.09;5049430;28;21761;-61
2023/01/18 09:59:49;;;;;;;6.83;3.17;;;;;;;0.44;89.14;91663.41;5049595;28;20048;-61
2023/01/18 10:02:22;;;;;;;7.25;2.67;;;;;;;0.31;91.02;91662.44;5050131;28;20040;-61
2023/01/18 10:04:57;;;;;;;11.15;4.70;;;;;;;0.69;85.84;91662.31;5049132;28;20435;-61
2023/01/18 10:07:28;;;;;;;12.75;5.80;;;;;;;1.60;83.22;91661.19;5049457;28;20044;-61
2023/01/18 10:09:59;;;;;;;11.05;5.32;;;;;;;3.19;76.05;91672.94;5049734;28;20033;-61
2023/01/18 10:12:56;;;;;;;7.97;3.53;;;;;;;0.93;82.62;91676.59;5049467;28;20071;-61
2023/01/18 10:15:30;;;;;;;8.75;4.57;;;;;;;0.46;84.69;91682.66;5049532;28;20426;-61
2023/01/18 10:17:59;;;;;;;6.90;3.92;;;;;;;0.11;80.97;91681.94;5049824;28;20551;-61
2023/01/18 10:20:39;;;;;;;6.60;3.53;;;;;;;1.31;76.00;91687.16;5031903;28;20045;-61
2023/01/18 10:23:27;;;;;;;7.60;4.50;;;;;;;0.90;76.60;91686.25;5049877;28;20045;-61
2023/01/18 10:26:05;;;;;;;6.67;2.80;;;;;;;1.07;75.27;91684.47;5048502;28;20628;-61
2023/01/18 10:28:44;;;;;;;5.00;2.67;;;;;;;1.70;73.40;91688.44;5049428;28;20075;-61
2023/01/18 10:31:34;;;;;;;7.57;2.88;;;;;;;1.35;74.69;91690.59;5049838;28;20037;-61
2023/01/18 10:34:03;;;;;;;6.95;2.67;;;;;;;0.06;80.75;91695.91;5049314;28;20606;-61
2023/01/18 10:36:37;;;;;;;6.35;3.25;;;;;;;2.20;73.51;91696.38;5048759;28;20045;-62
2023/01/18 10:39:24;;;;;;;5.87;3.00;;;;;;;0.07;81.95;91700.09;5049542;28;20037;-61
2023/01/18 10:41:51;;;;;;;6.78;3.38;;;;;;;0.52;81.99;91701.84;5049080;28;20609;-61
2023/01/18 10:44:17;;;;;;;7.55;3.60;;;;;;;1.15;79.43;91704.78;5031877;28;20049;-61
2023/01/18 10:46:44;;;;;;;7.57;3.17;;;;;;;2.04;75.76;91709.06;5051816;28;20692;-61
2023/01/18 10:49:32;;;;;;;11.27;4.85;;;;;;;3.46;67.98;91709.09;5053660;28;20033;-61
2023/01/18 10:52:29;;;;;;;5.13;2.53;;;;;;;1.34;71.65;91722.25;5052614;28;20104;-62
2023/01/18 10:55:02;;;;;;;7.47;3.85;;;;;;;1.58;76.74;91722.25;5052713;28;20554;-61
2023/01/18 10:57:48;;;;;;;6.07;2.70;;;;;;;3.58;67.77;91724.69;5052908;28;20520;-61
2023/01/18 11:00:31;;;;;;;6.72;2.80;;;;;;;2.96;65.93;91724.59;5053391;28;20393;-61
2023/01/18 11:02:59;;;;;;;4.68;2.45;;;;;;;2.35;68.31;91723.91;5052314;28;20897;-61
2023/01/18 11:05:29;;;;;;;8.73;3.80;;;;;;;2.75;66.38;91731.22;5052754;28;20045;-61
2023/01/18 11:08:33;;;;;;;6.43;3.15;;;;;;;2.05;69.35;91726.81;5053395;28;20414;-62
2023/01/18 11:11:16;;;;;;;7.63;2.78;;;;;;;1.33;68.89;91736.19;5052065;28;21617;-61
2023/01/18 11:13:48;;;;;;;4.03;2.22;;;;;;;0.56;70.95;91746.53;5052900;28;20382;-61
2023/01/18 11:16:19;;;;;;;5.10;2.30;;;;;;;1.85;69.47;91743.81;5052711;28;20048;-61
2023/01/18 11:19:00;;;;;;;4.57;2.00;;;;;;;1.26;66.37;91747.09;5052065;28;20121;-62
2023/01/18 11:21:41;;;;;;;6.70;2.67;;;;;;;2.55;64.17;91740.13;5052616;28;20083;-62
2023/01/18 11:24:14;;;;;;;5.43;2.50;;;;;;;2.43;62.69;91748.88;5052979;28;20045;-62
2023/01/18 11:27:00;;;;;;;4.63;2.38;;;;;;;0.82;65.78;91736.16;5052313;28;20049;-62
2023/01/18 11:29:33;;;;;;;5.32;2.55;;;;;;;0.17;69.15;91750.47;5038568;28;20044;-61
2023/01/18 11:32:12;;;;;;;4.70;2.33;;;;;;;-0.25;73.70;91759.78;5053002;28;20055;-62
2023/01/18 11:34:42;;;;;;;5.93;2.90;;;;;;;-0.05;75.46;91760.72;5052455;28;20049;-61
2023/01/18 11:37:27;;;;;;;9.02;4.47;;;;;;;0.17;76.15;91763.94;5052849;28;20051;-61
2023/01/18 11:39:54;;;;;;;5.38;2.65;;;;;;;-0.26;78.08;91766.34;5051842;28;20307;-63
2023/01/18 11:42:29;;;;;;;7.43;3.88;;;;;;;-0.41;79.59;91782.63;5052546;28;20056;-60
2023/01/18 11:45:14;;;;;;;7.23;3.50;;;;;;;-1.39;83.48;91781.00;5053094;28;20068;-61
2023/01/18 11:47:52;;;;;;;6.22;2.75;;;;;;;-1.40;84.98;91790.25;5040833;28;20041;-60
2023/01/18 11:50:36;;;;;;;8.88;5.13;;;;;;;-1.50;84.75;91783.75;5052021;28;20490;-60
2023/01/18 11:53:48;;;;;;;4.53;2.55;;;;;;;-1.19;84.49;91789.34;5052711;28;20049;-61
2023/01/18 11:56:29;;;;;;;7.47;3.60;;;;;;;-1.22;86.44;91796.28;5016072;28;20718;-61
2023/01/18 11:58:56;;;;;;;6.60;2.63;;;;;;;-1.24;86.18;91805.91;5051135;28;20152;-61
2023/01/18 12:01:31;;;;;;;7.32;3.42;;;;;;;-1.48;88.17;91807.56;5052096;28;20049;-60
2023/01/18 12:04:22;;;;;;;6.07;3.03;;;;;;;-1.05;87.09;91810.81;5052115;28;20110;-60
2023/01/18 12:07:09;;;;;;;6.13;3.05;;;;;;;-0.95;86.23;91811.13;5048651;28;20910;-60
2023/01/18 12:09:55;;;;;;;5.15;2.60;;;;;;;-1.32;85.57;91818.63;5051384;28;20067;-60
2023/01/18 12:12:42;;;;;;;7.63;3.00;;;;;;;-0.74;88.09;91818.31;5051786;28;20041;-60
2023/01/18 12:15:08;;;;;;;4.47;2.20;;;;;;;-1.03;85.81;91818.47;5041214;28;20075;-60
2023/01/18 12:17:38;;;;;;;6.38;2.83;;;;;;;-0.77;85.28;91829.84;5051369;28;20409;-60
2023/01/18 12:20:39;;;;;;;5.00;2.03;;;;;;;-0.65;83.25;91829.38;5051907;28;20045;-60